sensor_id;sensor_type;location;lat;lon;timestamp;P1;durP1;ratioP1;P2;durP2;ratioP2
45676;SDS011;31390;51.186;6.830;2023-03-19T00:00:10;4.97;;;3.60;;
45676;SDS011;31390;51.186;6.830;2023-03-19T00:02:38;5.80;;;3.58;;
45676;SDS011;31390;51.186;6.830;2023-03-19T00:05:04;4.32;;;2.95;;
45676;SDS011;31390;51.186;6.830;2023-03-19T00:07:31;8.80;;;3.65;;
45676;SDS011;31390;51.186;6.830;2023-03-19T00:09:57;6.63;;;3.92;;
45676;SDS011;31390;51.186;6.830;2023-03-19T00:12:24;7.38;;;3.35;;
45676;SDS011;31390;51.186;6.830;2023-03-19T00:14:50;5.70;;;3.20;;
45676;SDS011;31390;51.186;6.830;2023-03-19T00:17:17;10.93;;;4.05;;
45676;SDS011;31390;51.186;6.830;2023-03-19T00:19:43;4.90;;;3.60;;
45676;SDS011;31390;51.186;6.830;2023-03-19T00:22:10;5.10;;;3.40;;
45676;SDS011;31390;51.186;6.830;2023-03-19T00:24:37;4.78;;;3.67;;
45676;SDS011;31390;51.186;6.830;2023-03-19T00:27:03;5.20;;;4.00;;
45676;SDS011;31390;51.186;6.830;2023-03-19T00:29:30;5.88;;;3.70;;
45676;SDS011;31390;51.186;6.830;2023-03-19T00:31:56;5.50;;;4.10;;
45676;SDS011;31390;51.186;6.830;2023-03-19T00:34:23;6.45;;;4.50;;
45676;SDS011;31390;51.186;6.830;2023-03-19T00:36:50;5.40;;;4.43;;
45676;SDS011;31390;51.186;6.830;2023-03-19T00:39:17;8.65;;;5.45;;
45676;SDS011;31390;51.186;6.830;2023-03-19T00:41:43;5.45;;;4.13;;
45676;SDS011;31390;51.186;6.830;2023-03-19T00:44:16;6.95;;;3.97;;
45676;SDS011;31390;51.186;6.830;2023-03-19T00:46:43;7.10;;;4.88;;
45676;SDS011;31390;51.186;6.830;2023-03-19T00:49:10;9.00;;;4.97;;
45676;SDS011;31390;51.186;6.830;2023-03-19T00:51:37;7.80;;;4.20;;
45676;SDS011;31390;51.186;6.830;2023-03-19T00:54:03;5.35;;;4.57;;
45676;SDS011;31390;51.186;6.830;2023-03-19T00:56:30;6.28;;;5.05;;
45676;SDS011;31390;51.186;6.830;2023-03-19T00:58:56;6.47;;;4.82;;
45676;SDS011;31390;51.186;6.830;2023-03-19T01:01:23;7.25;;;5.13;;
45676;SDS011;31390;51.186;6.830;2023-03-19T01:03:50;8.35;;;5.25;;
45676;SDS011;31390;51.186;6.830;2023-03-19T01:06:17;7.35;;;5.22;;
45676;SDS011;31390;51.186;6.830;2023-03-19T01:08:43;7.07;;;4.80;;
45676;SDS011;31390;51.186;6.830;2023-03-19T01:11:11;6.20;;;5.10;;
45676;SDS011;31390;51.186;6.830;2023-03-19T01:13:39;8.45;;;5.35;;
45676;SDS011;31390;51.186;6.830;2023-03-19T01:16:07;10.18;;;5.30;;
45676;SDS011;31390;51.186;6.830;2023-03-19T01:18:35;5.15;;;4.57;;
45676;SDS011;31390;51.186;6.830;2023-03-19T01:21:04;6.75;;;5.18;;
45676;SDS011;31390;51.186;6.830;2023-03-19T01:23:32;5.97;;;4.72;;
45676;SDS011;31390;51.186;6.830;2023-03-19T01:25:58;6.47;;;5.00;;
45676;SDS011;31390;51.186;6.830;2023-03-19T01:28:27;6.15;;;5.10;;
45676;SDS011;31390;51.186;6.830;2023-03-19T01:30:57;8.57;;;5.55;;
45676;SDS011;31390;51.186;6.830;2023-03-19T01:33:49;5.95;;;5.20;;
45676;SDS011;31390;51.186;6.830;2023-03-19T01:36:25;6.97;;;5.45;;
45676;SDS011;31390;51.186;6.830;2023-03-19T01:39:00;8.82;;;5.65;;
45676;SDS011;31390;51.186;6.830;2023-03-19T01:41:26;10.60;;;5.60;;
45676;SDS011;31390;51.186;6.830;2023-03-19T01:43:59;7.03;;;5.93;;
45676;SDS011;31390;51.186;6.830;2023-03-19T01:46:35;9.32;;;6.38;;
45676;SDS011;31390;51.186;6.830;2023-03-19T01:49:35;8.27;;;6.13;;
45676;SDS011;31390;51.186;6.830;2023-03-19T01:52:21;9.52;;;5.90;;
45676;SDS011;31390;51.186;6.830;2023-03-19T01:54:56;8.85;;;6.20;;
45676;SDS011;31390;51.186;6.830;2023-03-19T01:57:56;10.45;;;6.40;;
45676;SDS011;31390;51.186;6.830;2023-03-19T02:00:35;8.15;;;6.18;;
45676;SDS011;31390;51.186;6.830;2023-03-19T02:03:03;7.57;;;6.05;;
45676;SDS011;31390;51.186;6.830;2023-03-19T02:05:52;7.78;;;6.72;;
45676;SDS011;31390;51.186;6.830;2023-03-19T02:08:21;9.50;;;6.95;;
45676;SDS011;31390;51.186;6.830;2023-03-19T02:10:49;9.77;;;7.40;;
45676;SDS011;31390;51.186;6.830;2023-03-19T02:13:17;10.00;;;8.07;;
45676;SDS011;31390;51.186;6.830;2023-03-19T02:15:43;7.13;;;6.28;;
45676;SDS011;31390;51.186;6.830;2023-03-19T02:18:10;9.88;;;7.10;;
45676;SDS011;31390;51.186;6.830;2023-03-19T02:23:25;8.10;;;6.47;;
45676;SDS011;31390;51.186;6.830;2023-03-19T02:26:05;9.13;;;6.47;;
45676;SDS011;31390;51.186;6.830;2023-03-19T02:28:33;8.43;;;6.78;;
45676;SDS011;31390;51.186;6.830;2023-03-19T02:31:00;7.18;;;5.60;;
45676;SDS011;31390;51.186;6.830;2023-03-19T02:33:28;8.70;;;6.30;;
45676;SDS011;31390;51.186;6.830;2023-03-19T02:35:55;6.03;;;5.25;;
45676;SDS011;31390;51.186;6.830;2023-03-19T02:38:22;7.07;;;5.25;;
45676;SDS011;31390;51.186;6.830;2023-03-19T02:43:16;9.90;;;5.55;;
45676;SDS011;31390;51.186;6.830;2023-03-19T02:45:43;9.00;;;5.10;;
45676;SDS011;31390;51.186;6.830;2023-03-19T02:48:09;7.57;;;5.07;;
45676;SDS011;31390;51.186;6.830;2023-03-19T02:50:36;6.50;;;5.18;;
45676;SDS011;31390;51.186;6.830;2023-03-19T02:53:03;7.57;;;5.03;;
45676;SDS011;31390;51.186;6.830;2023-03-19T02:55:29;6.88;;;4.63;;
45676;SDS011;31390;51.186;6.830;2023-03-19T02:57:56;6.32;;;4.70;;
45676;SDS011;31390;51.186;6.830;2023-03-19T03:00:22;9.32;;;5.38;;
45676;SDS011;31390;51.186;6.830;2023-03-19T03:02:50;8.68;;;4.90;;
45676;SDS011;31390;51.186;6.830;2023-03-19T03:05:17;8.70;;;4.88;;
45676;SDS011;31390;51.186;6.830;2023-03-19T03:07:44;6.18;;;5.00;;
45676;SDS011;31390;51.186;6.830;2023-03-19T03:10:11;10.00;;;5.40;;
45676;SDS011;31390;51.186;6.830;2023-03-19T03:12:38;6.85;;;4.88;;
45676;SDS011;31390;51.186;6.830;2023-03-19T03:15:05;6.50;;;4.97;;
45676;SDS011;31390;51.186;6.830;2023-03-19T03:17:32;7.97;;;4.80;;
45676;SDS011;31390;51.186;6.830;2023-03-19T03:19:59;5.45;;;4.50;;
45676;SDS011;31390;51.186;6.830;2023-03-19T03:22:26;7.95;;;4.43;;
45676;SDS011;31390;51.186;6.830;2023-03-19T03:24:52;5.00;;;4.45;;
45676;SDS011;31390;51.186;6.830;2023-03-19T03:27:19;7.85;;;5.03;;
45676;SDS011;31390;51.186;6.830;2023-03-19T03:29:45;6.05;;;4.70;;
45676;SDS011;31390;51.186;6.830;2023-03-19T03:32:13;4.65;;;4.05;;
45676;SDS011;31390;51.186;6.830;2023-03-19T03:34:39;5.40;;;4.63;;
45676;SDS011;31390;51.186;6.830;2023-03-19T03:37:06;6.55;;;4.82;;
45676;SDS011;31390;51.186;6.830;2023-03-19T03:39:32;5.88;;;4.00;;
45676;SDS011;31390;51.186;6.830;2023-03-19T03:41:59;4.78;;;4.20;;
45676;SDS011;31390;51.186;6.830;2023-03-19T03:44:28;7.15;;;4.53;;
45676;SDS011;31390;51.186;6.830;2023-03-19T03:46:55;5.35;;;4.22;;
45676;SDS011;31390;51.186;6.830;2023-03-19T03:49:22;4.75;;;4.18;;
45676;SDS011;31390;51.186;6.830;2023-03-19T03:51:48;5.20;;;4.32;;
45676;SDS011;31390;51.186;6.830;2023-03-19T03:54:15;4.47;;;3.83;;
45676;SDS011;31390;51.186;6.830;2023-03-19T03:56:41;5.07;;;4.07;;
45676;SDS011;31390;51.186;6.830;2023-03-19T03:59:08;5.00;;;3.72;;
45676;SDS011;31390;51.186;6.830;2023-03-19T04:01:34;6.63;;;3.95;;
45676;SDS011;31390;51.186;6.830;2023-03-19T04:04:01;6.55;;;3.65;;
45676;SDS011;31390;51.186;6.830;2023-03-19T04:06:28;5.13;;;3.60;;
45676;SDS011;31390;51.186;6.830;2023-03-19T04:09:18;5.22;;;3.75;;
45676;SDS011;31390;51.186;6.830;2023-03-19T04:11:44;6.50;;;3.70;;
45676;SDS011;31390;51.186;6.830;2023-03-19T04:14:11;6.82;;;4.20;;
45676;SDS011;31390;51.186;6.830;2023-03-19T04:16:38;5.10;;;4.10;;
45676;SDS011;31390;51.186;6.830;2023-03-19T04:19:05;5.10;;;4.30;;
45676;SDS011;31390;51.186;6.830;2023-03-19T04:21:33;5.10;;;3.88;;
45676;SDS011;31390;51.186;6.830;2023-03-19T04:24:00;8.23;;;3.88;;
45676;SDS011;31390;51.186;6.830;2023-03-19T04:26:27;5.18;;;4.10;;
45676;SDS011;31390;51.186;6.830;2023-03-19T04:28:54;9.35;;;4.25;;
45676;SDS011;31390;51.186;6.830;2023-03-19T04:31:22;5.35;;;3.83;;
45676;SDS011;31390;51.186;6.830;2023-03-19T04:33:48;4.68;;;3.60;;
45676;SDS011;31390;51.186;6.830;2023-03-19T04:36:15;4.13;;;3.70;;
45676;SDS011;31390;51.186;6.830;2023-03-19T04:38:43;6.28;;;3.85;;
45676;SDS011;31390;51.186;6.830;2023-03-19T04:41:09;4.93;;;3.85;;
45676;SDS011;31390;51.186;6.830;2023-03-19T04:43:42;4.97;;;3.75;;
45676;SDS011;31390;51.186;6.830;2023-03-19T04:46:09;5.75;;;3.90;;
45676;SDS011;31390;51.186;6.830;2023-03-19T04:48:35;6.32;;;3.72;;
45676;SDS011;31390;51.186;6.830;2023-03-19T04:51:04;6.85;;;3.97;;
45676;SDS011;31390;51.186;6.830;2023-03-19T04:53:35;4.88;;;3.67;;
45676;SDS011;31390;51.186;6.830;2023-03-19T04:56:02;3.88;;;3.55;;
45676;SDS011;31390;51.186;6.830;2023-03-19T04:58:29;15.75;;;3.83;;
45676;SDS011;31390;51.186;6.830;2023-03-19T05:01:00;4.50;;;3.50;;
45676;SDS011;31390;51.186;6.830;2023-03-19T05:04:05;4.25;;;3.40;;
45676;SDS011;31390;51.186;6.830;2023-03-19T05:06:34;4.97;;;3.50;;
45676;SDS011;31390;51.186;6.830;2023-03-19T05:09:02;4.05;;;3.35;;
45676;SDS011;31390;51.186;6.830;2023-03-19T05:11:30;4.32;;;3.17;;
45676;SDS011;31390;51.186;6.830;2023-03-19T05:14:18;8.55;;;4.10;;
45676;SDS011;31390;51.186;6.830;2023-03-19T05:17:18;3.92;;;3.25;;
45676;SDS011;31390;51.186;6.830;2023-03-19T05:19:55;3.50;;;3.17;;
45676;SDS011;31390;51.186;6.830;2023-03-19T05:22:23;4.22;;;3.40;;
45676;SDS011;31390;51.186;6.830;2023-03-19T05:24:51;4.28;;;3.25;;
45676;SDS011;31390;51.186;6.830;2023-03-19T05:27:18;3.88;;;3.17;;
45676;SDS011;31390;51.186;6.830;2023-03-19T05:29:51;4.85;;;3.33;;
45676;SDS011;31390;51.186;6.830;2023-03-19T05:32:28;4.53;;;2.78;;
45676;SDS011;31390;51.186;6.830;2023-03-19T05:34:58;6.65;;;2.65;;
45676;SDS011;31390;51.186;6.830;2023-03-19T05:37:25;4.38;;;2.90;;
45676;SDS011;31390;51.186;6.830;2023-03-19T05:39:55;4.80;;;2.88;;
45676;SDS011;31390;51.186;6.830;2023-03-19T05:42:21;4.00;;;2.90;;
45676;SDS011;31390;51.186;6.830;2023-03-19T05:44:48;3.85;;;3.08;;
45676;SDS011;31390;51.186;6.830;2023-03-19T05:47:19;5.15;;;2.90;;
45676;SDS011;31390;51.186;6.830;2023-03-19T05:49:51;3.78;;;2.90;;
45676;SDS011;31390;51.186;6.830;2023-03-19T05:52:21;3.58;;;2.60;;
45676;SDS011;31390;51.186;6.830;2023-03-19T05:54:49;2.72;;;2.38;;
45676;SDS011;31390;51.186;6.830;2023-03-19T05:57:31;7.63;;;3.00;;
45676;SDS011;31390;51.186;6.830;2023-03-19T06:00:07;4.65;;;2.72;;
45676;SDS011;31390;51.186;6.830;2023-03-19T06:02:34;3.83;;;2.55;;
45676;SDS011;31390;51.186;6.830;2023-03-19T06:05:24;4.60;;;2.42;;
45676;SDS011;31390;51.186;6.830;2023-03-19T06:07:59;4.25;;;2.50;;
45676;SDS011;31390;51.186;6.830;2023-03-19T06:10:58;3.85;;;2.65;;
45676;SDS011;31390;51.186;6.830;2023-03-19T06:13:26;3.53;;;2.63;;
45676;SDS011;31390;51.186;6.830;2023-03-19T06:15:57;4.13;;;2.80;;
45676;SDS011;31390;51.186;6.830;2023-03-19T06:18:32;2.78;;;2.42;;
45676;SDS011;31390;51.186;6.830;2023-03-19T06:21:04;5.20;;;2.40;;
45676;SDS011;31390;51.186;6.830;2023-03-19T06:23:31;5.38;;;2.55;;
45676;SDS011;31390;51.186;6.830;2023-03-19T06:26:00;4.15;;;3.15;;
45676;SDS011;31390;51.186;6.830;2023-03-19T06:28:35;3.53;;;3.22;;
45676;SDS011;31390;51.186;6.830;2023-03-19T06:31:03;4.57;;;2.95;;
45676;SDS011;31390;51.186;6.830;2023-03-19T06:33:56;4.72;;;3.42;;
45676;SDS011;31390;51.186;6.830;2023-03-19T06:36:28;3.53;;;2.60;;
45676;SDS011;31390;51.186;6.830;2023-03-19T06:38:55;3.28;;;2.15;;
45676;SDS011;31390;51.186;6.830;2023-03-19T06:41:22;3.95;;;2.90;;
45676;SDS011;31390;51.186;6.830;2023-03-19T06:43:52;3.00;;;2.70;;
45676;SDS011;31390;51.186;6.830;2023-03-19T06:46:20;5.40;;;2.60;;
45676;SDS011;31390;51.186;6.830;2023-03-19T06:48:48;3.28;;;2.53;;
45676;SDS011;31390;51.186;6.830;2023-03-19T06:51:16;3.63;;;3.03;;
45676;SDS011;31390;51.186;6.830;2023-03-19T06:53:45;6.40;;;3.08;;
45676;SDS011;31390;51.186;6.830;2023-03-19T06:56:19;2.75;;;2.38;;
45676;SDS011;31390;51.186;6.830;2023-03-19T06:58:46;4.28;;;2.90;;
45676;SDS011;31390;51.186;6.830;2023-03-19T07:01:12;2.88;;;2.60;;
45676;SDS011;31390;51.186;6.830;2023-03-19T07:03:39;4.03;;;3.50;;
45676;SDS011;31390;51.186;6.830;2023-03-19T07:06:06;3.40;;;3.10;;
45676;SDS011;31390;51.186;6.830;2023-03-19T07:08:32;3.58;;;2.80;;
45676;SDS011;31390;51.186;6.830;2023-03-19T07:11:05;3.22;;;2.70;;
45676;SDS011;31390;51.186;6.830;2023-03-19T07:13:32;6.65;;;4.95;;
45676;SDS011;31390;51.186;6.830;2023-03-19T07:15:59;3.60;;;3.08;;
45676;SDS011;31390;51.186;6.830;2023-03-19T07:18:26;2.50;;;2.10;;
45676;SDS011;31390;51.186;6.830;2023-03-19T07:20:52;3.88;;;2.90;;
45676;SDS011;31390;51.186;6.830;2023-03-19T07:23:19;3.03;;;2.63;;
45676;SDS011;31390;51.186;6.830;2023-03-19T07:25:45;2.92;;;2.65;;
45676;SDS011;31390;51.186;6.830;2023-03-19T07:28:13;3.95;;;2.42;;
45676;SDS011;31390;51.186;6.830;2023-03-19T07:30:39;5.57;;;2.70;;
45676;SDS011;31390;51.186;6.830;2023-03-19T07:33:07;2.75;;;2.50;;
45676;SDS011;31390;51.186;6.830;2023-03-19T07:35:34;2.55;;;2.25;;
45676;SDS011;31390;51.186;6.830;2023-03-19T07:38:02;2.33;;;2.13;;
45676;SDS011;31390;51.186;6.830;2023-03-19T07:40:30;3.80;;;2.33;;
45676;SDS011;31390;51.186;6.830;2023-03-19T07:42:58;2.92;;;2.35;;
45676;SDS011;31390;51.186;6.830;2023-03-19T07:45:24;2.50;;;2.30;;
45676;SDS011;31390;51.186;6.830;2023-03-19T07:47:51;4.72;;;2.60;;
45676;SDS011;31390;51.186;6.830;2023-03-19T07:50:17;2.78;;;2.40;;
45676;SDS011;31390;51.186;6.830;2023-03-19T07:52:47;2.63;;;2.25;;
45676;SDS011;31390;51.186;6.830;2023-03-19T07:55:14;4.28;;;2.65;;
45676;SDS011;31390;51.186;6.830;2023-03-19T07:57:40;4.22;;;2.67;;
45676;SDS011;31390;51.186;6.830;2023-03-19T08:00:07;3.50;;;2.10;;
45676;SDS011;31390;51.186;6.830;2023-03-19T08:02:38;2.50;;;2.30;;
45676;SDS011;31390;51.186;6.830;2023-03-19T08:05:04;2.60;;;2.40;;
45676;SDS011;31390;51.186;6.830;2023-03-19T08:07:31;3.22;;;2.30;;
45676;SDS011;31390;51.186;6.830;2023-03-19T08:09:59;3.10;;;2.30;;
45676;SDS011;31390;51.186;6.830;2023-03-19T08:12:25;3.78;;;2.47;;
45676;SDS011;31390;51.186;6.830;2023-03-19T08:14:52;2.67;;;2.47;;
45676;SDS011;31390;51.186;6.830;2023-03-19T08:17:19;5.93;;;2.80;;
45676;SDS011;31390;51.186;6.830;2023-03-19T08:19:46;2.85;;;2.28;;
45676;SDS011;31390;51.186;6.830;2023-03-19T08:22:13;2.60;;;2.40;;
45676;SDS011;31390;51.186;6.830;2023-03-19T08:24:41;2.58;;;2.38;;
45676;SDS011;31390;51.186;6.830;2023-03-19T08:27:08;3.22;;;2.35;;
45676;SDS011;31390;51.186;6.830;2023-03-19T08:29:37;2.92;;;2.50;;
45676;SDS011;31390;51.186;6.830;2023-03-19T08:32:04;2.58;;;2.35;;
45676;SDS011;31390;51.186;6.830;2023-03-19T08:34:31;2.58;;;2.30;;
45676;SDS011;31390;51.186;6.830;2023-03-19T08:36:58;3.15;;;2.40;;
45676;SDS011;31390;51.186;6.830;2023-03-19T08:39:24;2.85;;;2.53;;
45676;SDS011;31390;51.186;6.830;2023-03-19T08:41:51;2.65;;;2.25;;
45676;SDS011;31390;51.186;6.830;2023-03-19T08:44:17;2.40;;;2.20;;
45676;SDS011;31390;51.186;6.830;2023-03-19T08:46:44;2.92;;;2.30;;
45676;SDS011;31390;51.186;6.830;2023-03-19T08:49:11;2.60;;;2.40;;
45676;SDS011;31390;51.186;6.830;2023-03-19T08:51:37;2.65;;;2.45;;
45676;SDS011;31390;51.186;6.830;2023-03-19T08:54:06;2.33;;;1.98;;
45676;SDS011;31390;51.186;6.830;2023-03-19T08:56:33;3.97;;;3.35;;
45676;SDS011;31390;51.186;6.830;2023-03-19T08:59:01;3.20;;;2.88;;
45676;SDS011;31390;51.186;6.830;2023-03-19T09:01:28;2.58;;;2.33;;
45676;SDS011;31390;51.186;6.830;2023-03-19T09:03:55;3.38;;;2.92;;
45676;SDS011;31390;51.186;6.830;2023-03-19T09:06:21;3.10;;;2.80;;
45676;SDS011;31390;51.186;6.830;2023-03-19T09:08:48;3.05;;;2.70;;
45676;SDS011;31390;51.186;6.830;2023-03-19T09:11:14;3.03;;;2.60;;
45676;SDS011;31390;51.186;6.830;2023-03-19T09:13:42;3.20;;;2.60;;
45676;SDS011;31390;51.186;6.830;2023-03-19T09:16:09;3.35;;;2.72;;
45676;SDS011;31390;51.186;6.830;2023-03-19T09:18:37;2.85;;;2.58;;
45676;SDS011;31390;51.186;6.830;2023-03-19T09:21:04;2.72;;;2.38;;
45676;SDS011;31390;51.186;6.830;2023-03-19T09:23:33;2.88;;;2.20;;
45676;SDS011;31390;51.186;6.830;2023-03-19T09:26:00;2.50;;;2.30;;
45676;SDS011;31390;51.186;6.830;2023-03-19T09:28:28;4.47;;;2.42;;
45676;SDS011;31390;51.186;6.830;2023-03-19T09:31:02;2.35;;;2.15;;
45676;SDS011;31390;51.186;6.830;2023-03-19T09:33:32;2.55;;;2.35;;
45676;SDS011;31390;51.186;6.830;2023-03-19T09:35:59;2.60;;;2.40;;
45676;SDS011;31390;51.186;6.830;2023-03-19T09:38:25;3.08;;;2.67;;
45676;SDS011;31390;51.186;6.830;2023-03-19T09:44:15;3.10;;;2.80;;
45676;SDS011;31390;51.186;6.830;2023-03-19T09:46:24;2.85;;;2.58;;
45676;SDS011;31390;51.186;6.830;2023-03-19T09:48:56;2.88;;;2.58;;
45676;SDS011;31390;51.186;6.830;2023-03-19T09:51:40;2.60;;;2.40;;
45676;SDS011;31390;51.186;6.830;2023-03-19T09:54:17;2.90;;;2.58;;
45676;SDS011;31390;51.186;6.830;2023-03-19T09:56:45;2.80;;;2.40;;
45676;SDS011;31390;51.186;6.830;2023-03-19T09:59:12;3.17;;;2.88;;
45676;SDS011;31390;51.186;6.830;2023-03-19T10:01:39;2.88;;;2.67;;
45676;SDS011;31390;51.186;6.830;2023-03-19T10:04:17;3.53;;;3.33;;
45676;SDS011;31390;51.186;6.830;2023-03-19T10:06:47;3.55;;;2.90;;
45676;SDS011;31390;51.186;6.830;2023-03-19T10:12:23;3.40;;;3.17;;
45676;SDS011;31390;51.186;6.830;2023-03-19T10:17:48;3.90;;;3.60;;
45676;SDS011;31390;51.186;6.830;2023-03-19T10:22:44;3.28;;;2.97;;
45676;SDS011;31390;51.186;6.830;2023-03-19T10:25:15;4.18;;;3.50;;
45676;SDS011;31390;51.186;6.830;2023-03-19T10:27:44;3.60;;;3.30;;
45676;SDS011;31390;51.186;6.830;2023-03-19T10:30:13;3.30;;;3.00;;
45676;SDS011;31390;51.186;6.830;2023-03-19T10:32:45;3.70;;;3.13;;
45676;SDS011;31390;51.186;6.830;2023-03-19T10:37:46;3.13;;;2.83;;
45676;SDS011;31390;51.186;6.830;2023-03-19T10:40:35;3.00;;;2.80;;
45676;SDS011;31390;51.186;6.830;2023-03-19T10:43:06;2.70;;;2.50;;
45676;SDS011;31390;51.186;6.830;2023-03-19T10:45:37;2.67;;;2.35;;
45676;SDS011;31390;51.186;6.830;2023-03-19T10:48:05;2.35;;;2.15;;
45676;SDS011;31390;51.186;6.830;2023-03-19T10:53:03;2.70;;;2.47;;
45676;SDS011;31390;51.186;6.830;2023-03-19T10:55:30;2.60;;;2.35;;
45676;SDS011;31390;51.186;6.830;2023-03-19T10:58:04;4.53;;;3.08;;
45676;SDS011;31390;51.186;6.830;2023-03-19T11:00:32;3.50;;;3.20;;
45676;SDS011;31390;51.186;6.830;2023-03-19T11:03:01;3.53;;;3.22;;
45676;SDS011;31390;51.186;6.830;2023-03-19T11:05:31;3.35;;;3.05;;
45676;SDS011;31390;51.186;6.830;2023-03-19T11:08:03;2.85;;;2.65;;
45676;SDS011;31390;51.186;6.830;2023-03-19T11:10:34;3.17;;;2.85;;
45676;SDS011;31390;51.186;6.830;2023-03-19T11:13:11;3.00;;;2.80;;
45676;SDS011;31390;51.186;6.830;2023-03-19T11:15:48;3.30;;;2.60;;
45676;SDS011;31390;51.186;6.830;2023-03-19T11:18:23;3.10;;;2.90;;
45676;SDS011;31390;51.186;6.830;2023-03-19T11:20:56;3.47;;;3.17;;
45676;SDS011;31390;51.186;6.830;2023-03-19T11:23:28;4.45;;;3.70;;
45676;SDS011;31390;51.186;6.830;2023-03-19T11:25:58;5.82;;;4.78;;
45676;SDS011;31390;51.186;6.830;2023-03-19T11:28:26;6.03;;;5.43;;
45676;SDS011;31390;51.186;6.830;2023-03-19T11:36:28;14.85;;;10.43;;
45676;SDS011;31390;51.186;6.830;2023-03-19T11:38:57;9.32;;;8.20;;
45676;SDS011;31390;51.186;6.830;2023-03-19T11:46:40;15.23;;;11.23;;
45676;SDS011;31390;51.186;6.830;2023-03-19T11:51:58;43.72;;;20.65;;
45676;SDS011;31390;51.186;6.830;2023-03-19T11:56:59;23.73;;;14.00;;
45676;SDS011;31390;51.186;6.830;2023-03-19T11:59:39;14.98;;;12.73;;
45676;SDS011;31390;51.186;6.830;2023-03-19T12:04:55;26.45;;;17.50;;
45676;SDS011;31390;51.186;6.830;2023-03-19T12:20:14;23.50;;;16.85;;
45676;SDS011;31390;51.186;6.830;2023-03-19T12:22:49;56.05;;;25.52;;
45676;SDS011;31390;51.186;6.830;2023-03-19T12:27:55;46.28;;;23.67;;
45676;SDS011;31390;51.186;6.830;2023-03-19T12:30:42;27.23;;;15.63;;
45676;SDS011;31390;51.186;6.830;2023-03-19T12:35:40;31.50;;;18.42;;
45676;SDS011;31390;51.186;6.830;2023-03-19T12:40:36;19.30;;;13.80;;
45676;SDS011;31390;51.186;6.830;2023-03-19T12:43:05;24.85;;;14.93;;
45676;SDS011;31390;51.186;6.830;2023-03-19T12:45:37;9.85;;;8.85;;
45676;SDS011;31390;51.186;6.830;2023-03-19T12:48:06;19.40;;;12.40;;
45676;SDS011;31390;51.186;6.830;2023-03-19T12:50:36;13.15;;;10.02;;
45676;SDS011;31390;51.186;6.830;2023-03-19T12:53:06;16.98;;;10.27;;
45676;SDS011;31390;51.186;6.830;2023-03-19T12:55:36;19.55;;;12.07;;
45676;SDS011;31390;51.186;6.830;2023-03-19T12:58:17;13.10;;;9.35;;
45676;SDS011;31390;51.186;6.830;2023-03-19T13:01:01;29.23;;;14.18;;
45676;SDS011;31390;51.186;6.830;2023-03-19T13:03:45;21.45;;;13.93;;
45676;SDS011;31390;51.186;6.830;2023-03-19T13:06:19;24.05;;;14.10;;
45676;SDS011;31390;51.186;6.830;2023-03-19T13:09:00;28.75;;;15.38;;
45676;SDS011;31390;51.186;6.830;2023-03-19T13:12:15;20.35;;;13.05;;
45676;SDS011;31390;51.186;6.830;2023-03-19T13:14:18;38.85;;;18.85;;
45676;SDS011;31390;51.186;6.830;2023-03-19T13:16:50;19.00;;;12.05;;
45676;SDS011;31390;51.186;6.830;2023-03-19T13:21:46;18.25;;;11.13;;
45676;SDS011;31390;51.186;6.830;2023-03-19T13:26:40;11.40;;;9.55;;
45676;SDS011;31390;51.186;6.830;2023-03-19T13:29:11;12.02;;;9.18;;
45676;SDS011;31390;51.186;6.830;2023-03-19T13:31:39;78.03;;;26.58;;
45676;SDS011;31390;51.186;6.830;2023-03-19T13:34:16;15.70;;;10.88;;
45676;SDS011;31390;51.186;6.830;2023-03-19T13:39:32;15.73;;;11.27;;
45676;SDS011;31390;51.186;6.830;2023-03-19T13:42:10;19.88;;;10.57;;
45676;SDS011;31390;51.186;6.830;2023-03-19T13:44:50;22.08;;;12.50;;
45676;SDS011;31390;51.186;6.830;2023-03-19T13:52:44;20.23;;;12.82;;
45676;SDS011;31390;51.186;6.830;2023-03-19T13:57:55;31.75;;;21.33;;
45676;SDS011;31390;51.186;6.830;2023-03-19T14:03:13;12.38;;;9.32;;
45676;SDS011;31390;51.186;6.830;2023-03-19T14:05:44;10.48;;;8.30;;
45676;SDS011;31390;51.186;6.830;2023-03-19T14:08:19;11.02;;;8.70;;
45676;SDS011;31390;51.186;6.830;2023-03-19T14:10:47;12.68;;;10.40;;
45676;SDS011;31390;51.186;6.830;2023-03-19T14:13:37;22.23;;;14.57;;
45676;SDS011;31390;51.186;6.830;2023-03-19T14:16:04;9.38;;;7.88;;
45676;SDS011;31390;51.186;6.830;2023-03-19T14:18:31;10.93;;;9.40;;
45676;SDS011;31390;51.186;6.830;2023-03-19T14:21:00;11.73;;;8.52;;
45676;SDS011;31390;51.186;6.830;2023-03-19T14:23:31;11.70;;;9.63;;
45676;SDS011;31390;51.186;6.830;2023-03-19T14:26:15;11.80;;;10.02;;
45676;SDS011;31390;51.186;6.830;2023-03-19T14:31:17;14.88;;;11.13;;
45676;SDS011;31390;51.186;6.830;2023-03-19T14:33:47;12.52;;;9.35;;
45676;SDS011;31390;51.186;6.830;2023-03-19T14:36:16;21.95;;;14.45;;
45676;SDS011;31390;51.186;6.830;2023-03-19T14:38:54;24.15;;;15.55;;
45676;SDS011;31390;51.186;6.830;2023-03-19T14:41:22;11.05;;;9.40;;
45676;SDS011;31390;51.186;6.830;2023-03-19T14:44:07;10.63;;;8.00;;
45676;SDS011;31390;51.186;6.830;2023-03-19T14:47:01;17.33;;;12.35;;
45676;SDS011;31390;51.186;6.830;2023-03-19T14:52:04;9.95;;;6.88;;
45676;SDS011;31390;51.186;6.830;2023-03-19T14:54:36;13.45;;;10.40;;
45676;SDS011;31390;51.186;6.830;2023-03-19T14:57:06;13.32;;;11.93;;
45676;SDS011;31390;51.186;6.830;2023-03-19T14:59:37;10.65;;;9.20;;
45676;SDS011;31390;51.186;6.830;2023-03-19T15:02:04;13.43;;;10.68;;
45676;SDS011;31390;51.186;6.830;2023-03-19T15:04:42;11.05;;;9.95;;
45676;SDS011;31390;51.186;6.830;2023-03-19T15:07:10;11.43;;;10.32;;
45676;SDS011;31390;51.186;6.830;2023-03-19T15:09:42;11.40;;;9.80;;
45676;SDS011;31390;51.186;6.830;2023-03-19T15:17:24;9.27;;;8.10;;
45676;SDS011;31390;51.186;6.830;2023-03-19T15:19:53;13.77;;;10.63;;
45676;SDS011;31390;51.186;6.830;2023-03-19T15:22:24;10.90;;;9.77;;
45676;SDS011;31390;51.186;6.830;2023-03-19T15:24:51;12.32;;;9.98;;
45676;SDS011;31390;51.186;6.830;2023-03-19T15:27:25;19.55;;;13.52;;
45676;SDS011;31390;51.186;6.830;2023-03-19T15:29:52;12.85;;;10.52;;
45676;SDS011;31390;51.186;6.830;2023-03-19T15:32:32;13.57;;;11.50;;
45676;SDS011;31390;51.186;6.830;2023-03-19T15:35:20;9.55;;;8.63;;
45676;SDS011;31390;51.186;6.830;2023-03-19T15:37:49;15.50;;;11.13;;
45676;SDS011;31390;51.186;6.830;2023-03-19T15:40:17;12.40;;;10.00;;
45676;SDS011;31390;51.186;6.830;2023-03-19T15:42:45;9.80;;;8.80;;
45676;SDS011;31390;51.186;6.830;2023-03-19T15:45:13;12.45;;;9.07;;
45676;SDS011;31390;51.186;6.830;2023-03-19T15:47:54;8.98;;;8.02;;
45676;SDS011;31390;51.186;6.830;2023-03-19T15:50:24;8.88;;;7.97;;
45676;SDS011;31390;51.186;6.830;2023-03-19T15:52:59;9.27;;;8.27;;
45676;SDS011;31390;51.186;6.830;2023-03-19T15:55:27;7.90;;;7.13;;
45676;SDS011;31390;51.186;6.830;2023-03-19T15:57:54;8.18;;;7.47;;
45676;SDS011;31390;51.186;6.830;2023-03-19T16:00:22;8.93;;;8.13;;
45676;SDS011;31390;51.186;6.830;2023-03-19T16:02:49;11.45;;;8.82;;
45676;SDS011;31390;51.186;6.830;2023-03-19T16:05:23;9.15;;;8.25;;
45676;SDS011;31390;51.186;6.830;2023-03-19T16:07:51;9.60;;;8.70;;
45676;SDS011;31390;51.186;6.830;2023-03-19T16:10:29;10.57;;;8.52;;
45676;SDS011;31390;51.186;6.830;2023-03-19T16:12:56;10.05;;;9.05;;
45676;SDS011;31390;51.186;6.830;2023-03-19T16:15:32;13.40;;;9.73;;
45676;SDS011;31390;51.186;6.830;2023-03-19T16:20:59;10.93;;;9.77;;
45676;SDS011;31390;51.186;6.830;2023-03-19T16:23:28;12.48;;;10.63;;
45676;SDS011;31390;51.186;6.830;2023-03-19T16:25:56;12.13;;;10.82;;
45676;SDS011;31390;51.186;6.830;2023-03-19T16:28:28;9.70;;;8.70;;
45676;SDS011;31390;51.186;6.830;2023-03-19T16:30:55;10.68;;;9.65;;
45676;SDS011;31390;51.186;6.830;2023-03-19T16:33:21;11.50;;;10.30;;